Time;durP1;ratioP1;P1;durP2;ratioP2;P2;SDS_P1;SDS_P2;PMS_P1;PMS_P2;Temp;Humidity;BMP_temperature;BMP_pressure;BME280_temperature;BME280_humidity;BME280_pressure;Samples;Min_cycle;Max_cycle;Signal;HPM_P1;HPM_P2
2021/03/23 00:02:01;;;;;;;9.85;7.18;;;5.30;99.90;;;;;;4995827;28;20018;-75
2021/03/23 00:04:26;;;;;;;15.32;7.95;;;5.30;99.90;;;;;;5009167;28;20026;-78
2021/03/23 00:06:52;;;;;;;12.80;7.72;;;5.30;99.90;;;;;;5016386;28;20030;-77
2021/03/23 00:09:17;;;;;;;14.18;8.32;;;5.30;99.90;;;;;;5007894;28;20445;-77
2021/03/23 00:11:43;;;;;;;15.63;8.38;;;5.40;99.90;;;;;;4998133;28;20367;-74
2021/03/23 00:14:13;;;;;;;9.77;7.43;;;5.40;99.90;;;;;;4999673;28;20031;-74
2021/03/23 00:16:42;;;;;;;21.10;9.50;;;5.40;99.90;;;;;;4999477;28;20022;-76
2021/03/23 00:19:10;;;;;;;13.68;7.90;;;5.40;99.90;;;;;;4996883;28;20025;-76
2021/03/23 00:21:36;;;;;;;14.43;8.80;;;5.40;99.90;;;;;;4998187;28;20165;-75
2021/03/23 00:24:02;;;;;;;12.18;8.15;;;5.40;99.90;;;;;;4998749;28;20121;-75
2021/03/23 00:26:28;;;;;;;15.18;7.97;;;5.30;99.90;;;;;;4997947;28;20050;-75
2021/03/23 00:28:54;;;;;;;14.30;8.70;;;5.30;99.90;;;;;;4996925;28;20072;-75
2021/03/23 00:31:24;;;;;;;10.38;7.10;;;5.40;99.90;;;;;;4996703;28;20034;-74
2021/03/23 00:33:50;;;;;;;16.30;9.38;;;5.40;99.90;;;;;;4998050;28;20034;-73
2021/03/23 00:36:19;;;;;;;10.32;8.25;;;5.40;99.90;;;;;;5002673;28;20034;-75
2021/03/23 00:38:45;;;;;;;16.58;8.68;;;5.50;99.90;;;;;;5005702;28;20032;-75
2021/03/23 00:41:12;;;;;;;13.90;8.90;;;5.50;99.90;;;;;;5003903;28;20551;-75
2021/03/23 00:43:39;;;;;;;13.10;8.00;;;5.40;99.90;;;;;;4997968;28;20026;-76
2021/03/23 00:46:06;;;;;;;15.32;9.27;;;5.50;99.90;;;;;;5009990;28;20059;-76
2021/03/23 00:48:32;;;;;;;10.15;7.82;;;5.40;99.90;;;;;;5004280;28;20026;-77
2021/03/23 00:50:58;;;;;;;11.95;8.55;;;5.40;99.90;;;;;;5001326;28;20137;-75
2021/03/23 00:53:23;;;;;;;14.77;7.95;;;5.40;99.90;;;;;;4994569;28;20030;-75
2021/03/23 00:55:49;;;;;;;13.68;8.13;;;5.40;99.90;;;;;;4995262;28;20053;-73
2021/03/23 00:58:15;;;;;;;18.55;8.85;;;5.40;99.90;;;;;;4994135;28;20080;-76
2021/03/23 01:00:41;;;;;;;14.98;9.50;;;5.30;99.90;;;;;;4995541;28;20027;-75
2021/03/23 01:03:06;;;;;;;12.77;8.70;;;5.30;99.90;;;;;;4996740;28;20034;-75
2021/03/23 01:05:34;;;;;;;13.85;9.20;;;5.30;99.90;;;;;;5004476;28;20469;-77
2021/03/23 01:08:00;;;;;;;13.73;8.90;;;5.30;99.90;;;;;;5007956;28;20026;-77
2021/03/23 01:10:28;;;;;;;15.70;9.73;;;5.40;99.90;;;;;;5002140;28;20088;-73
2021/03/23 01:12:54;;;;;;;13.20;8.70;;;5.40;99.90;;;;;;5006973;28;20026;-75
2021/03/23 01:15:23;;;;;;;11.85;8.45;;;5.40;99.90;;;;;;4994922;28;20637;-74
2021/03/23 01:17:49;;;;;;;12.50;9.65;;;5.40;99.90;;;;;;4998909;28;20038;-75
2021/03/23 01:20:16;;;;;;;11.75;8.68;;;5.40;99.90;;;;;;5003621;28;20026;-75
2021/03/23 01:22:42;;;;;;;12.80;8.85;;;5.40;99.90;;;;;;5018233;28;20030;-76
2021/03/23 01:25:09;;;;;;;16.77;9.85;;;5.30;99.90;;;;;;5004758;28;20060;-75
2021/03/23 01:27:34;;;;;;;17.02;8.77;;;5.30;99.90;;;;;;4997525;28;20048;-76
2021/03/23 01:30:00;;;;;;;15.48;9.50;;;5.40;99.90;;;;;;5002973;28;20034;-77
2021/03/23 01:32:26;;;;;;;16.73;9.48;;;5.30;99.90;;;;;;5001061;28;20022;-75
2021/03/23 01:34:52;;;;;;;16.55;9.82;;;5.30;99.90;;;;;;5000451;28;20076;-76
2021/03/23 01:37:18;;;;;;;17.55;9.80;;;5.30;99.90;;;;;;5008978;28;20086;-75
2021/03/23 01:39:44;;;;;;;14.93;9.95;;;5.30;99.90;;;;;;4993493;28;20018;-74
2021/03/23 01:42:11;;;;;;;14.32;10.80;;;5.30;99.90;;;;;;5005916;28;20045;-73
2021/03/23 01:44:42;;;;;;;17.33;10.85;;;5.30;99.90;;;;;;4992780;28;20038;-75
2021/03/23 01:47:08;;;;;;;15.43;11.32;;;5.30;99.90;;;;;;4993465;28;20082;-74
2021/03/23 01:49:35;;;;;;;21.00;13.18;;;5.30;99.90;;;;;;4996939;28;20038;-75
2021/03/23 01:52:06;;;;;;;21.83;12.10;;;5.30;99.90;;;;;;5000937;28;20125;-75
2021/03/23 01:54:39;;;;;;;;;;;5.30;99.90;;;;;;4997920;28;20114;-73
2021/03/23 01:57:08;;;;;;;17.85;11.63;;;5.30;99.90;;;;;;5009003;28;20599;-76
2021/03/23 01:59:44;;;;;;;20.15;12.07;;;5.30;99.90;;;;;;4993413;28;20523;-74
2021/03/23 02:02:10;;;;;;;18.38;12.13;;;5.40;99.90;;;;;;4993584;28;20027;-75
2021/03/23 02:04:36;;;;;;;22.42;13.43;;;5.30;99.90;;;;;;4993680;28;20360;-75
2021/03/23 02:07:02;;;;;;;22.38;12.95;;;5.30;99.90;;;;;;4994170;28;20161;-74
2021/03/23 02:09:31;;;;;;;19.92;12.35;;;5.40;99.90;;;;;;5013153;28;20018;-74
2021/03/23 02:12:09;;;;;;;20.65;13.88;;;5.40;99.90;;;;;;5017389;28;20037;-76
2021/03/23 02:14:41;;;;;;;21.42;13.65;;;5.40;99.90;;;;;;4985825;28;20483;-75
2021/03/23 02:17:33;;;;;;;25.02;14.68;;;5.30;99.90;;;;;;4992661;28;20080;-77
2021/03/23 02:20:00;;;;;;;26.15;14.77;;;5.30;99.90;;;;;;5003368;28;20068;-74
2021/03/23 02:22:30;;;;;;;27.65;16.02;;;5.20;99.90;;;;;;4995815;28;20080;-74
2021/03/23 02:24:56;;;;;;;24.63;15.48;;;5.20;99.90;;;;;;5012150;28;20038;-73
2021/03/23 02:27:24;;;;;;;27.00;15.27;;;5.20;99.90;;;;;;4996143;28;20049;-74
2021/03/23 02:29:55;;;;;;;23.92;16.20;;;5.20;99.90;;;;;;5006258;28;20026;-74
2021/03/23 02:32:21;;;;;;;24.52;16.35;;;5.20;99.90;;;;;;4992673;28;20117;-74
2021/03/23 02:34:47;;;;;;;32.60;16.58;;;5.20;99.90;;;;;;4995193;28;20080;-75
2021/03/23 02:37:13;;;;;;;27.77;15.13;;;5.30;99.90;;;;;;4994978;28;20058;-76
2021/03/23 02:39:38;;;;;;;28.98;16.58;;;5.20;99.90;;;;;;4992950;28;20029;-75
2021/03/23 02:42:05;;;;;;;25.35;15.80;;;5.20;99.90;;;;;;4999254;28;20515;-74
2021/03/23 02:44:46;;;;;;;26.83;17.00;;;5.20;99.90;;;;;;4999937;28;20032;-76
2021/03/23 02:47:13;;;;;;;;;;;5.20;99.90;;;;;;4994279;28;20042;-75
2021/03/23 02:49:40;;;;;;;26.05;16.45;;;5.20;99.90;;;;;;4996549;28;19917;-75
2021/03/23 02:52:06;;;;;;;24.55;15.85;;;5.20;99.90;;;;;;4982266;28;20039;-75
2021/03/23 02:54:32;;;;;;;25.17;15.88;;;5.20;99.90;;;;;;5007184;28;20021;-74
2021/03/23 02:56:58;;;;;;;26.15;16.50;;;5.20;99.90;;;;;;5014368;28;20484;-74
2021/03/23 02:59:23;;;;;;;26.52;17.48;;;5.20;99.90;;;;;;5011267;28;20100;-75
2021/03/23 03:01:49;;;;;;;25.08;16.60;;;5.20;99.90;;;;;;5002002;28;20019;-75
2021/03/23 03:04:15;;;;;;;26.00;15.02;;;5.20;99.90;;;;;;5006726;28;20030;-74
2021/03/23 03:06:40;;;;;;;31.48;17.17;;;5.20;99.90;;;;;;4999454;28;20033;-75
2021/03/23 03:09:07;;;;;;;29.38;17.63;;;5.20;99.90;;;;;;5008990;28;20026;-76
2021/03/23 03:11:32;;;;;;;27.67;16.00;;;5.20;99.90;;;;;;5004876;28;20438;-74
2021/03/23 03:13:58;;;;;;;26.58;17.25;;;5.20;99.90;;;;;;4992987;28;20033;-74
2021/03/23 03:16:24;;;;;;;27.80;16.60;;;5.20;99.90;;;;;;4994101;28;20046;-75
2021/03/23 03:18:49;;;;;;;24.38;17.05;;;5.20;99.90;;;;;;4996831;28;20142;-74
2021/03/23 03:21:16;;;;;;;28.05;17.80;;;5.20;99.90;;;;;;5000528;28;20072;-75
2021/03/23 03:23:41;;;;;;;28.80;16.55;;;5.20;99.90;;;;;;5004082;28;20029;-75
2021/03/23 03:26:07;;;;;;;26.52;16.02;;;5.20;99.90;;;;;;5006021;28;20050;-75
2021/03/23 03:28:34;;;;;;;23.90;17.08;;;5.20;99.90;;;;;;5006557;28;20065;-75
2021/03/23 03:31:00;;;;;;;28.35;16.85;;;5.20;99.90;;;;;;5004363;28;20526;-74
2021/03/23 03:33:26;;;;;;;24.85;15.48;;;5.30;99.90;;;;;;5004137;28;20034;-75
2021/03/23 03:35:52;;;;;;;26.00;17.58;;;5.30;99.90;;;;;;5004504;28;20022;-74
2021/03/23 03:38:20;;;;;;;29.13;17.08;;;5.30;99.90;;;;;;5007385;28;20061;-75
2021/03/23 03:40:52;;;;;;;30.08;17.45;;;5.30;99.90;;;;;;5000322;28;20030;-74
2021/03/23 03:43:22;;;;;;;30.00;17.23;;;5.30;99.90;;;;;;5001328;28;20366;-76
2021/03/23 03:45:47;;;;;;;25.05;16.60;;;5.30;99.90;;;;;;5010537;28;20022;-75
2021/03/23 03:48:13;;;;;;;28.58;18.45;;;5.30;99.90;;;;;;5007576;28;20101;-72
2021/03/23 03:50:39;;;;;;;27.88;16.73;;;5.30;99.90;;;;;;5002099;28;20207;-73
2021/03/23 03:53:05;;;;;;;25.80;17.83;;;5.30;99.90;;;;;;5012574;28;20026;-74
2021/03/23 03:55:34;;;;;;;25.63;17.23;;;5.30;99.90;;;;;;5019633;28;20027;-74
2021/03/23 03:58:00;;;;;;;24.90;16.35;;;5.30;99.90;;;;;;5019752;28;20022;-72
2021/03/23 04:00:29;;;;;;;26.80;16.42;;;5.30;99.90;;;;;;5019408;28;20037;-74
2021/03/23 04:02:55;;;;;;;29.10;17.80;;;5.40;99.90;;;;;;5021534;28;20037;-72
2021/03/23 04:05:26;;;;;;;25.50;16.25;;;5.30;99.90;;;;;;5030469;28;20075;-73
2021/03/23 04:07:52;;;;;;;36.20;17.70;;;5.30;99.90;;;;;;5036781;28;20030;-72
2021/03/23 04:10:19;;;;;;;25.55;16.67;;;5.40;99.90;;;;;;5002117;28;20602;-73
2021/03/23 04:12:48;;;;;;;26.73;16.80;;;5.30;99.90;;;;;;5012506;28;20391;-73
2021/03/23 04:15:26;;;;;;;28.88;17.38;;;5.30;99.90;;;;;;4996857;28;20038;-74
2021/03/23 04:17:51;;;;;;;23.45;15.45;;;5.20;99.90;;;;;;5013936;28;20072;-74
2021/03/23 04:20:18;;;;;;;27.00;16.95;;;5.20;99.90;;;;;;4996960;28;20026;-76
2021/03/23 04:22:44;;;;;;;25.17;16.50;;;5.20;99.90;;;;;;5009209;28;20026;-74
2021/03/23 04:25:11;;;;;;;29.23;18.15;;;5.20;99.90;;;;;;5005297;28;20054;-74
2021/03/23 04:27:37;;;;;;;23.80;16.17;;;5.20;99.90;;;;;;5012230;28;20054;-72
2021/03/23 04:30:07;;;;;;;26.98;18.10;;;5.20;99.90;;;;;;4998885;28;20081;-74
2021/03/23 04:32:33;;;;;;;30.98;18.88;;;5.20;99.90;;;;;;5003007;28;20027;-74
2021/03/23 04:34:59;;;;;;;29.73;17.17;;;5.20;99.90;;;;;;4992955;28;20022;-74
2021/03/23 04:37:24;;;;;;;27.65;17.30;;;5.20;99.90;;;;;;4994136;28;20046;-75
2021/03/23 04:39:50;;;;;;;23.88;15.80;;;5.20;99.90;;;;;;4995751;28;20062;-73
2021/03/23 04:42:16;;;;;;;26.58;17.48;;;5.20;99.90;;;;;;5007074;28;20031;-73
2021/03/23 04:44:41;;;;;;;26.77;16.63;;;5.20;99.90;;;;;;5006828;28;20022;-75
2021/03/23 04:47:07;;;;;;;25.20;15.80;;;5.20;99.90;;;;;;4998177;28;20035;-74
2021/03/23 04:49:33;;;;;;;34.03;18.17;;;5.20;99.90;;;;;;4995978;28;20034;-73
2021/03/23 04:51:58;;;;;;;33.42;17.52;;;5.20;99.90;;;;;;4996220;28;20037;-75
2021/03/23 04:54:24;;;;;;;26.75;16.98;;;5.20;99.90;;;;;;4996659;28;20027;-74
2021/03/23 04:56:50;;;;;;;27.95;18.90;;;5.20;99.90;;;;;;4997269;28;20105;-75
2021/03/23 04:59:16;;;;;;;27.77;16.92;;;5.20;99.90;;;;;;4999893;28;20646;-75
2021/03/23 05:01:41;;;;;;;27.20;17.23;;;5.30;99.90;;;;;;4995567;28;20015;-74
2021/03/23 05:04:12;;;;;;;30.98;17.30;;;5.30;99.90;;;;;;5004289;28;20034;-75
2021/03/23 05:06:38;;;;;;;;;;;5.30;99.90;;;;;;4993977;28;20426;-75
2021/03/23 05:09:04;;;;;;;27.05;16.90;;;5.30;99.90;;;;;;5008210;28;19909;-73
2021/03/23 05:11:32;;;;;;;33.08;19.50;;;5.30;99.90;;;;;;4993902;28;20030;-73
2021/03/23 05:13:58;;;;;;;28.75;17.10;;;5.30;99.90;;;;;;5000236;28;20034;-73
2021/03/23 05:16:24;;;;;;;30.17;18.23;;;5.30;99.90;;;;;;4998277;28;20023;-74
2021/03/23 05:18:50;;;;;;;26.13;15.88;;;5.30;99.90;;;;;;5010362;28;20421;-74
2021/03/23 05:21:17;;;;;;;29.55;17.27;;;5.30;99.90;;;;;;4997817;28;20033;-74
2021/03/23 05:23:42;;;;;;;34.58;18.67;;;5.30;99.90;;;;;;4995499;28;20564;-75
2021/03/23 05:26:08;;;;;;;32.40;17.17;;;5.40;99.90;;;;;;4995033;28;20034;-74
2021/03/23 05:28:34;;;;;;;30.48;18.33;;;5.40;99.90;;;;;;4997387;28;20049;-73
2021/03/23 05:31:01;;;;;;;29.80;17.58;;;5.40;99.90;;;;;;4995162;28;20084;-74
2021/03/23 05:33:27;;;;;;;33.58;18.70;;;5.30;99.90;;;;;;5000108;28;20038;-75
2021/03/23 05:35:56;;;;;;;27.85;16.63;;;5.30;99.90;;;;;;4997059;28;20084;-74
2021/03/23 05:38:22;;;;;;;29.70;17.17;;;5.40;99.90;;;;;;5001666;28;20124;-75
2021/03/23 05:40:52;;;;;;;28.08;16.52;;;5.40;99.90;;;;;;5001600;28;20030;-73
2021/03/23 05:43:32;;;;;;;28.30;17.73;;;5.40;99.90;;;;;;4994712;28;20546;-74
2021/03/23 05:46:03;;;;;;;27.70;17.30;;;5.40;99.90;;;;;;4997059;28;20033;-75
2021/03/23 05:48:35;;;;;;;27.42;17.80;;;5.40;99.90;;;;;;5005991;28;20034;-74
2021/03/23 05:51:10;;;;;;;31.90;17.30;;;5.40;99.90;;;;;;4995224;28;20033;-75
2021/03/23 05:53:47;;;;;;;30.25;17.55;;;5.40;99.90;;;;;;4993846;28;20084;-74
2021/03/23 05:56:15;;;;;;;29.23;18.25;;;5.60;99.90;;;;;;4996644;28;20025;-74
2021/03/23 05:58:46;;;;;;;40.40;18.88;;;5.70;99.90;;;;;;4996404;28;20030;-73
2021/03/23 06:01:24;;;;;;;27.50;17.73;;;5.60;99.90;;;;;;4992935;28;20471;-73
2021/03/23 06:04:08;;;;;;;27.23;17.42;;;5.60;99.90;;;;;;4991582;28;20026;-74
2021/03/23 06:06:41;;;;;;;34.92;18.70;;;5.50;99.90;;;;;;4997164;28;20097;-73
2021/03/23 06:09:15;;;;;;;28.88;16.88;;;5.40;99.90;;;;;;4994734;28;20030;-74
2021/03/23 06:11:43;;;;;;;32.67;18.08;;;5.50;99.90;;;;;;4994172;28;20502;-75
2021/03/23 06:14:52;;;;;;;26.90;16.95;;;5.50;99.90;;;;;;4996338;28;20073;-72
2021/03/23 06:17:56;;;;;;;29.02;17.85;;;5.60;99.90;;;;;;5003329;28;20034;-73
2021/03/23 06:20:31;;;;;;;24.42;16.52;;;5.60;99.90;;;;;;5024493;28;20469;-74
2021/03/23 06:23:35;;;;;;;31.20;17.77;;;5.50;99.90;;;;;;5025576;28;20052;-72
2021/03/23 06:26:38;;;;;;;26.90;17.88;;;5.50;99.90;;;;;;5025249;28;20078;-72
2021/03/23 06:29:06;;;;;;;28.00;18.58;;;5.50;99.90;;;;;;5018047;28;20018;-74
2021/03/23 06:32:28;;;;;;;31.05;18.60;;;5.50;99.90;;;;;;5020844;28;20014;-73
2021/03/23 06:34:56;;;;;;;29.48;17.52;;;5.50;99.90;;;;;;4944081;29;20048;-73
2021/03/23 06:37:27;;;;;;;28.73;17.98;;;5.60;99.90;;;;;;4944132;29;20034;-74
2021/03/23 06:39:53;;;;;;;31.35;19.42;;;5.60;99.90;;;;;;4993568;28;20049;-72
2021/03/23 06:42:35;;;;;;;31.27;19.13;;;5.70;99.90;;;;;;5030254;28;20038;-72
2021/03/23 06:45:18;;;;;;;35.35;18.42;;;5.90;99.90;;;;;;5014992;28;21592;-74
2021/03/23 06:47:43;;;;;;;31.83;17.30;;;5.90;99.90;;;;;;5003458;28;20039;-73
2021/03/23 06:50:21;;;;;;;34.42;19.38;;;6.00;99.90;;;;;;5003798;28;20123;-76
2021/03/23 06:53:06;;;;;;;35.67;18.02;;;6.00;99.90;;;;;;4998215;28;20442;-75
2021/03/23 06:55:32;;;;;;;33.53;18.17;;;5.90;99.90;;;;;;5002303;28;20026;-74
2021/03/23 06:57:59;;;;;;;32.80;18.73;;;6.00;99.90;;;;;;5001163;28;20437;-74
2021/03/23 07:00:32;;;;;;;32.70;18.80;;;5.80;99.90;;;;;;5002511;28;20082;-74
2021/03/23 07:03:13;;;;;;;24.58;16.98;;;5.80;99.90;;;;;;4994925;28;20069;-73
2021/03/23 07:05:45;;;;;;;28.83;17.30;;;5.90;99.90;;;;;;4999875;28;20108;-75
2021/03/23 07:08:11;;;;;;;27.13;17.83;;;6.00;99.90;;;;;;5000077;28;20084;-74
2021/03/23 07:11:02;;;;;;;34.55;18.65;;;6.10;99.90;;;;;;5004199;28;20385;-73
2021/03/23 07:13:28;;;;;;;27.92;17.98;;;6.10;99.90;;;;;;5012574;28;20113;-72
2021/03/23 07:16:12;;;;;;;27.13;18.45;;;6.00;99.90;;;;;;5015457;28;20022;-74
2021/03/23 07:18:41;;;;;;;33.88;18.45;;;6.00;99.90;;;;;;5007655;28;20053;-74
2021/03/23 07:21:11;;;;;;;31.95;19.25;;;6.10;99.90;;;;;;5006882;28;20034;-73
2021/03/23 07:23:44;;;;;;;28.48;18.45;;;6.10;99.90;;;;;;4997048;28;20050;-74
2021/03/23 07:26:23;;;;;;;38.40;20.13;;;6.10;99.90;;;;;;4994333;28;20038;-73
2021/03/23 07:28:48;;;;;;;33.85;19.70;;;6.20;99.90;;;;;;4998388;28;20088;-74
2021/03/23 07:31:28;;;;;;;31.58;18.77;;;6.20;99.90;;;;;;5003668;28;20038;-74
2021/03/23 07:34:12;;;;;;;33.85;20.05;;;6.20;99.90;;;;;;4996953;28;20117;-74
2021/03/23 07:36:39;;;;;;;30.27;19.45;;;6.20;99.90;;;;;;5015001;23;20137;-75
2021/03/23 07:39:19;;;;;;;36.17;19.83;;;6.30;99.90;;;;;;4997693;28;20034;-75
2021/03/23 07:42:13;;;;;;;39.90;21.30;;;6.40;99.90;;;;;;4998318;28;20026;-76
2021/03/23 07:44:50;;;;;;;38.22;21.33;;;6.40;99.90;;;;;;4993072;28;20034;-75
2021/03/23 07:47:16;;;;;;;30.02;18.85;;;6.50;99.90;;;;;;5011376;28;20030;-77
2021/03/23 07:49:46;;;;;;;33.50;19.60;;;6.60;99.90;;;;;;5003601;28;20073;-76
2021/03/23 07:52:26;;;;;;;38.63;20.67;;;6.60;99.90;;;;;;4996103;28;20030;-76
2021/03/23 07:54:57;;;;;;;27.77;17.97;;;6.60;99.90;;;;;;4991026;28;20026;-76
2021/03/23 07:57:44;;;;;;;31.08;19.58;;;6.70;99.90;;;;;;4996902;28;20113;-76
2021/03/23 08:00:19;;;;;;;31.83;20.20;;;6.70;99.90;;;;;;4995924;28;20031;-74
2021/03/23 08:03:09;;;;;;;29.33;20.15;;;6.80;99.90;;;;;;4989979;28;20030;-73
2021/03/23 08:06:02;;;;;;;31.17;19.35;;;6.80;99.90;;;;;;4995141;28;20031;-75
2021/03/23 08:09:05;;;;;;;32.67;20.77;;;7.00;99.90;;;;;;4993344;28;20038;-75
2021/03/23 08:11:31;;;;;;;36.72;20.85;;;7.20;99.90;;;;;;4997480;28;20026;-74
2021/03/23 08:14:35;;;;;;;28.85;18.38;;;7.30;99.90;;;;;;5004110;28;20030;-76
2021/03/23 08:17:19;;;;;;;31.65;18.73;;;7.40;99.90;;;;;;4993509;28;20934;-76
2021/03/23 08:20:15;;;;;;;33.80;19.50;;;7.60;99.90;;;;;;4994045;28;20498;-75
2021/03/23 08:23:04;;;;;;;29.55;19.63;;;7.50;99.90;;;;;;4994504;28;20080;-77
2021/03/23 08:25:49;;;;;;;27.38;18.17;;;7.40;99.90;;;;;;4996824;28;20405;-76
2021/03/23 08:28:52;;;;;;;31.52;18.60;;;7.20;99.90;;;;;;4996971;28;20034;-74
2021/03/23 08:31:33;;;;;;;26.67;17.92;;;7.20;99.90;;;;;;4997715;28;20034;-77
2021/03/23 08:34:08;;;;;;;;;;;7.50;99.90;;;;;;4994691;28;20027;-76
2021/03/23 08:36:52;;;;;;;34.05;19.30;;;7.90;83.70;;;;;;4993822;28;19920;-76
2021/03/23 08:39:55;;;;;;;32.55;17.60;;;7.80;88.70;;;;;;4991902;28;20054;-76
2021/03/23 08:42:23;;;;;;;41.20;17.85;;;7.70;89.80;;;;;;5004321;28;20509;-75
2021/03/23 08:45:03;;;;;;;31.58;19.15;;;7.90;83.20;;;;;;4996437;28;20076;-75
2021/03/23 08:47:42;;;;;;;31.23;18.15;;;8.60;1.00;;;;;;4996019;28;20095;-75
2021/03/23 08:50:16;;;;;;;32.30;18.20;;;8.80;1.00;;;;;;4996236;28;20037;-75
2021/03/23 08:52:46;;;;;;;26.40;17.63;;;8.50;1.00;;;;;;5000491;28;20030;-76
2021/03/23 08:55:24;;;;;;;31.92;18.55;;;8.50;1.00;;;;;;4994980;28;20037;-72
2021/03/23 08:58:00;;;;;;;27.35;16.00;;;8.40;19.30;;;;;;4997689;28;20022;-74
2021/03/23 09:00:35;;;;;;;28.13;17.27;;;8.70;1.00;;;;;;4997242;28;20403;-75
2021/03/23 09:03:07;;;;;;;26.40;17.13;;;8.70;1.00;;;;;;4989850;28;20018;-75
2021/03/23 09:05:56;;;;;;;20.73;14.10;;;8.80;1.00;;;;;;4998922;28;20561;-75
2021/03/23 09:08:21;;;;;;;22.45;14.90;;;8.80;1.00;;;;;;4993932;28;20402;-75
2021/03/23 09:11:02;;;;;;;22.50;14.75;;;8.70;1.00;;;;;;5010261;28;20023;-74
2021/03/23 09:13:33;;;;;;;29.08;17.02;;;8.60;1.00;;;;;;5003663;28;20026;-76
2021/03/23 09:16:05;;;;;;;20.27;13.90;;;8.50;1.00;;;;;;4996307;28;20081;-76
2021/03/23 09:18:35;;;;;;;19.15;12.95;;;8.80;1.00;;;;;;4996502;28;20061;-76
2021/03/23 09:21:08;;;;;;;18.92;13.35;;;9.30;99.90;;;;;;4998456;28;20052;-76
2021/03/23 09:23:35;;;;;;;17.63;11.50;;;9.40;99.90;;;;;;4989322;28;20037;-75
2021/03/23 09:26:35;;;;;;;18.35;11.95;;;9.90;99.90;;;;;;5001785;28;20057;-77
2021/03/23 09:29:32;;;;;;;17.53;10.70;;;9.40;69.90;;;;;;4989504;28;20037;-74
2021/03/23 09:32:12;;;;;;;13.52;10.52;;;9.90;99.90;;;;;;4993123;28;20269;-77
2021/03/23 09:35:19;;;;;;;22.80;11.32;;;10.50;1.00;;;;;;4996605;28;20451;-76
2021/03/23 09:38:18;;;;;;;15.35;10.68;;;10.40;99.90;;;;;;4998407;28;20525;-76
2021/03/23 09:40:56;;;;;;;15.27;9.38;;;10.20;99.90;;;;;;5013471;28;20098;-76
2021/03/23 09:43:24;;;;;;;14.65;10.25;;;9.90;92.40;;;;;;5004672;28;20030;-74
2021/03/23 09:45:49;;;;;;;13.93;10.18;;;9.80;99.90;;;;;;4999324;28;20111;-76
2021/03/23 09:49:12;;;;;;;15.35;10.77;;;9.70;80.90;;;;;;4998031;28;20533;-76
2021/03/23 09:51:57;;;;;;;13.60;9.45;;;9.80;1.00;;;;;;4924593;29;20039;-75
2021/03/23 09:54:32;;;;;;;11.57;8.80;;;9.60;99.90;;;;;;4932253;29;20035;-78
2021/03/23 09:57:16;;;;;;;11.50;9.15;;;10.00;99.90;;;;;;4994886;28;20042;-78
2021/03/23 09:59:51;;;;;;;14.05;10.35;;;10.60;99.90;;;;;;5014818;28;20006;-75
2021/03/23 10:02:31;;;;;;;14.48;10.93;;;10.60;99.90;;;;;;5015945;28;20065;-79
2021/03/23 10:05:16;;;;;;;18.00;10.55;;;10.10;1.00;;;;;;5017430;28;20032;-78
2021/03/23 10:07:44;;;;;;;15.20;10.88;;;9.90;99.90;;;;;;5008587;28;20525;-76
2021/03/23 10:10:34;;;;;;;15.57;9.82;;;10.00;99.90;;;;;;4998354;28;20037;-77
2021/03/23 10:13:26;;;;;;;16.35;11.68;;;9.90;99.90;;;;;;4997815;28;20558;-76
2021/03/23 10:16:00;;;;;;;16.40;10.80;;;9.60;1.00;;;;;;4995999;28;20081;-77
2021/03/23 10:18:29;;;;;;;11.65;7.70;;;10.00;99.90;;;;;;4993860;28;20029;-75
2021/03/23 10:21:11;;;;;;;11.55;7.35;;;10.40;1.00;;;;;;4990508;28;20546;-77
2021/03/23 10:23:50;;;;;;;11.50;8.45;;;10.00;1.00;;;;;;4988014;28;20121;-77
2021/03/23 10:26:16;;;;;;;15.40;9.02;;;9.70;33.80;;;;;;5005883;28;20117;-77
2021/03/23 10:28:52;;;;;;;19.02;10.38;;;9.90;99.90;;;;;;5017198;28;20014;-81
2021/03/23 10:31:29;;;;;;;11.75;8.43;;;10.00;99.90;;;;;;5017805;28;20015;-78
2021/03/23 10:34:11;;;;;;;14.55;8.30;;;10.30;1.00;;;;;;5004281;28;20120;-76
2021/03/23 10:36:42;;;;;;;;;;;10.20;99.90;;;;;;4996875;28;20035;-76
2021/03/23 10:39:25;;;;;;;13.88;8.15;;;10.20;9.90;;;;;;5003519;28;19917;-76
2021/03/23 10:41:51;;;;;;;6.30;5.18;;;10.30;1.00;;;;;;4999638;28;20069;-78
2021/03/23 10:44:24;;;;;;;10.18;6.68;;;9.80;99.90;;;;;;4999598;28;20027;-75
2021/03/23 10:46:50;;;;;;;7.85;6.65;;;9.40;99.90;;;;;;4994743;28;20022;-77
2021/03/23 10:49:28;;;;;;;7.43;6.72;;;9.40;3.80;;;;;;4994602;28;20401;-74
2021/03/23 10:52:17;;;;;;;8.32;5.63;;;9.00;1.00;;;;;;4996903;28;20047;-75
2021/03/23 10:54:43;;;;;;;7.35;4.13;;;9.10;69.70;;;;;;4998951;28;20520;-76
2021/03/23 10:57:26;;;;;;;8.25;5.18;;;8.70;34.20;;;;;;5004069;28;20031;-76
2021/03/23 10:59:53;;;;;;;7.80;4.75;;;8.80;1.00;;;;;;4994313;28;20435;-76
2021/03/23 11:02:29;;;;;;;6.97;4.80;;;9.00;99.90;;;;;;4991279;28;20122;-76
2021/03/23 11:05:12;;;;;;;5.63;4.60;;;9.20;99.90;;;;;;4995295;28;20077;-77
2021/03/23 11:07:50;;;;;;;5.18;4.03;;;9.40;1.00;;;;;;4987371;28;20034;-75
2021/03/23 11:10:19;;;;;;;4.95;4.05;;;9.30;1.00;;;;;;4994215;28;20093;-76
2021/03/23 11:12:45;;;;;;;6.55;4.85;;;9.30;99.90;;;;;;4992462;28;20378;-78
2021/03/23 11:15:12;;;;;;;7.03;5.72;;;9.80;99.90;;;;;;4993603;28;20073;-77
2021/03/23 11:17:47;;;;;;;7.35;5.85;;;9.70;1.00;;;;;;4992845;28;20486;-77
2021/03/23 11:20:36;;;;;;;7.03;4.80;;;9.70;99.90;;;;;;4988114;28;20116;-77
2021/03/23 11:23:05;;;;;;;13.90;4.97;;;9.80;1.00;;;;;;4988073;28;20049;-78
2021/03/23 11:25:32;;;;;;;7.57;3.92;;;9.70;1.00;;;;;;4991237;28;20398;-75
2021/03/23 11:28:02;;;;;;;6.38;4.93;;;9.30;99.90;;;;;;4989992;28;20035;-79
2021/03/23 11:30:28;;;;;;;7.35;4.63;;;9.60;1.00;;;;;;4994264;28;20034;-76
2021/03/23 11:32:53;;;;;;;10.63;4.85;;;9.90;99.90;;;;;;4992054;28;20035;-76
2021/03/23 11:35:19;;;;;;;11.10;5.53;;;9.80;99.90;;;;;;4988566;28;20078;-76
2021/03/23 11:37:45;;;;;;;9.35;5.55;;;9.70;99.90;;;;;;4992678;28;20038;-76
2021/03/23 11:40:11;;;;;;;10.80;6.63;;;9.80;99.90;;;;;;4997609;28;20035;-76
2021/03/23 11:42:43;;;;;;;9.00;6.13;;;9.50;99.90;;;;;;4996105;28;20037;-74
2021/03/23 11:45:37;;;;;;;7.30;5.10;;;10.10;99.90;;;;;;4991985;28;20030;-77
2021/03/23 11:48:09;;;;;;;5.97;5.38;;;10.10;99.90;;;;;;4987586;28;20495;-77
2021/03/23 11:50:35;;;;;;;7.10;5.35;;;9.80;56.60;;;;;;4993634;28;20026;-77
2021/03/23 11:53:01;;;;;;;9.13;5.30;;;9.40;99.90;;;;;;4991336;28;20394;-75
2021/03/23 11:55:30;;;;;;;8.35;5.35;;;9.50;99.90;;;;;;4997478;28;20645;-76
2021/03/23 11:57:56;;;;;;;11.68;6.80;;;9.60;1.00;;;;;;4998839;28;20018;-78
2021/03/23 12:00:29;;;;;;;7.65;5.93;;;9.60;1.00;;;;;;5011922;28;20314;-76
2021/03/23 12:02:56;;;;;;;7.65;5.80;;;9.60;99.90;;;;;;5009614;28;20034;-76
2021/03/23 12:05:23;;;;;;;6.53;5.40;;;9.20;1.00;;;;;;5004429;28;20035;-79
2021/03/23 12:08:26;;;;;;;7.53;5.20;;;8.90;99.90;;;;;;4999038;28;20339;-74
2021/03/23 12:11:21;;;;;;;6.93;5.13;;;8.90;99.90;;;;;;4996009;28;20030;-72
2021/03/23 12:14:19;;;;;;;8.07;5.88;;;9.00;99.90;;;;;;4984380;28;20037;-74
2021/03/23 12:17:03;;;;;;;8.90;5.47;;;9.20;99.90;;;;;;4995089;28;20057;-75
2021/03/23 12:19:41;;;;;;;10.13;6.22;;;9.20;1.00;;;;;;4996925;28;20014;-74
2021/03/23 12:22:09;;;;;;;9.40;6.05;;;9.30;1.00;;;;;;4998554;28;20030;-76
2021/03/23 12:24:35;;;;;;;10.48;6.75;;;9.40;99.90;;;;;;4996394;28;20023;-74
2021/03/23 12:27:02;;;;;;;8.38;6.75;;;9.60;1.00;;;;;;4997167;28;20075;-77
2021/03/23 12:29:28;;;;;;;8.10;5.90;;;9.50;1.00;;;;;;4996666;28;20034;-74
2021/03/23 12:31:53;;;;;;;8.05;6.45;;;9.20;59.50;;;;;;4998233;28;20019;-74
2021/03/23 12:34:19;;;;;;;10.75;6.60;;;9.10;97.80;;;;;;4997772;28;20030;-77
2021/03/23 12:36:45;;;;;;;8.70;7.05;;;9.20;1.00;;;;;;4997976;28;20023;-76
2021/03/23 12:39:11;;;;;;;10.10;6.78;;;9.20;1.00;;;;;;4997224;28;20042;-75
2021/03/23 12:41:38;;;;;;;8.75;6.60;;;9.40;99.90;;;;;;4992642;28;20471;-76
2021/03/23 12:44:06;;;;;;;8.90;6.18;;;9.50;99.90;;;;;;4993329;28;20041;-74
2021/03/23 12:46:33;;;;;;;7.00;6.00;;;9.40;1.00;;;;;;4987834;28;20033;-78
2021/03/23 12:48:59;;;;;;;9.18;6.32;;;9.50;99.90;;;;;;4992078;28;20023;-76
2021/03/23 12:51:39;;;;;;;10.20;6.45;;;9.70;1.00;;;;;;4994393;28;20486;-76
2021/03/23 12:54:30;;;;;;;11.27;6.97;;;9.50;42.40;;;;;;4995106;28;20054;-74
2021/03/23 12:56:56;;;;;;;9.18;6.65;;;9.60;1.00;;;;;;4995231;28;20019;-77
2021/03/23 12:59:27;;;;;;;10.27;6.68;;;9.70;1.00;;;;;;4998575;28;20027;-77
2021/03/23 13:01:53;;;;;;;8.75;6.78;;;9.60;99.90;;;;;;4994857;28;20032;-77
2021/03/23 13:04:23;;;;;;;9.85;6.47;;;9.70;99.90;;;;;;4996451;28;20141;-76
2021/03/23 13:06:49;;;;;;;10.60;7.07;;;9.60;99.90;;;;;;4998454;28;20081;-74
2021/03/23 13:09:16;;;;;;;12.23;6.60;;;9.70;99.90;;;;;;4995526;28;20026;-78
2021/03/23 13:11:44;;;;;;;11.38;7.22;;;9.60;99.90;;;;;;4988787;28;20105;-76
2021/03/23 13:14:22;;;;;;;9.95;7.15;;;9.60;99.90;;;;;;4994498;28;20514;-78